Aeroporto :
LOGIN :

Iscrizione | Disclaimer

   EN    FR    IT 

 










Sommario :    VFR   VFR Marginale   IFR   IFR Intensivo   IFR Molto Intensivo
Visibilità : 
Base nubi : 
>= 8 km
>= 3000ft
5 / 8 km
1000 / 3000 ft
1500m / 5 km
500 / 1000 ft
800 / 1500m
200 / 500 ft
< 800m
< 200 ft
Simboli :   Temporali  Nebbia  Neve Forte  Precipitazioni Forti  Vento > 20 kt
SIGMETs :   Varie  Temporali  Ghiacco  Turbolenza  Onda orograficha  Ceneri Vulcaniche






- Altitudine del aeroporto : 781 ft
- Codice IATA : SKP


LWSK - Skopje

ULTIMO METAR :
  • 260000Z 01004KT CAVOK 04/00 Q1011 NOSIG

METARs OBSOLETI :
  • 252330Z 03004KT CAVOK 04/01 Q1011 NOSIG
  • 252300Z 06004KT CAVOK 06/02 Q1011 NOSIG
  • 252230Z 05003KT CAVOK 06/02 Q1011 NOSIG
  • 252200Z 11005KT 070V130 CAVOK 08/03 Q1011 NOSIG
  • 252130Z 09004KT CAVOK 07/02 Q1011 NOSIG

TAF TAF LWSK
Valido dal 25 a 21 ore il 26 a 21 ore UTC


252030Z 2521/2621 09007KT CAVOK
TEMPO 2609/2617 18015KT



MetMap, La meteo Aeronautica in un colpo d'occhio ! - Copyright ORBIFLY Dicembre 2007 - Disclaimer

ORBIFLY MET'MAP TEAM :

Programmazione e sviluppo : Alexandra Zaïnal
Concezione : Baudouin d'Aumeries
Aiuto per la programmazione : Marc-Olivier Méhu
Supporto tecnico e logistico : Manuel Goepfert
Aiuto per la traduzione : Arnaldo La Scala

Contatto : metmap@orbifly.com




FONTI E CREDITI :

   NOAA